Time;durP1;ratioP1;P1;durP2;ratioP2;P2;SDS_P1;SDS_P2;PMS_P1;PMS_P2;Temp;Humidity;BMP_temperature;BMP_pressure;BME280_temperature;BME280_humidity;BME280_pressure;Samples;Min_cycle;Max_cycle;Signal;HPM_P1;HPM_P2
2023/01/27 06:25:22;;;;;;;70.72;51.28;;;;;;;22.79;34.52;102565.41;4972618;27;3895961;-44
2023/01/27 06:27:55;;;;;;;67.35;48.85;;;;;;;23.03;33.88;102548.16;5090582;28;20071;-43
2023/01/27 06:30:24;;;;;;;68.72;50.58;;;;;;;23.36;33.00;102560.00;5090847;28;20055;-44
2023/01/27 06:32:53;;;;;;;69.22;49.22;;;;;;;23.50;32.99;102560.56;5090722;28;20035;-43
2023/01/27 06:35:21;;;;;;;65.47;48.65;;;;;;;23.61;32.69;102558.38;5089961;28;20472;-43
2023/01/27 06:37:50;;;;;;;62.13;46.33;;;;;;;23.65;32.73;102555.06;5088738;28;20432;-44
2023/01/27 06:40:19;;;;;;;64.88;46.80;;;;;;;23.75;32.27;102564.13;5090208;28;20024;-46
2023/01/27 06:42:48;;;;;;;67.72;48.28;;;;;;;23.76;32.37;102564.22;5090269;28;20032;-43
2023/01/27 06:45:16;;;;;;;58.97;43.05;;;;;;;23.80;32.00;102557.34;5090293;28;20029;-45
2023/01/27 06:47:46;;;;;;;62.92;44.97;;;;;;;23.84;32.44;102561.91;5090363;28;20028;-46
2023/01/27 06:50:14;;;;;;;61.30;43.45;;;;;;;23.83;31.85;102554.88;5090184;28;20059;-45
2023/01/27 06:52:43;;;;;;;62.38;43.33;;;;;;;23.81;31.94;102554.81;5089959;28;20060;-43
2023/01/27 06:55:12;;;;;;;56.00;42.05;;;;;;;23.83;32.25;102558.38;5089888;28;20060;-42
2023/01/27 06:57:41;;;;;;;62.92;42.90;;;;;;;23.89;32.18;102560.34;5090410;28;20562;-45
2023/01/27 07:00:10;;;;;;;64.38;42.80;;;;;;;23.89;32.18;102565.59;5090133;28;20476;-42
2023/01/27 07:02:39;;;;;;;64.90;45.05;;;;;;;23.80;31.72;102545.16;5089989;28;20017;-43
2023/01/27 07:05:08;;;;;;;61.88;42.75;;;;;;;23.86;31.90;102560.22;5089927;28;20092;-42
2023/01/27 07:07:37;;;;;;;56.33;40.10;;;;;;;23.88;31.78;102569.06;5089686;28;20039;-42
2023/01/27 07:10:07;;;;;;;61.67;42.38;;;;;;;23.91;32.01;102571.75;5089679;28;20024;-42
2023/01/27 07:12:36;;;;;;;53.40;39.97;;;;;;;23.93;31.67;102571.84;5089744;28;20510;-43
2023/01/27 07:15:06;;;;;;;55.50;40.13;;;;;;;23.96;31.70;102582.44;5089417;28;20024;-42
2023/01/27 07:17:35;;;;;;;56.63;40.85;;;;;;;23.95;31.65;102571.06;5089840;28;20118;-42
2023/01/27 07:20:05;;;;;;;59.65;39.63;;;;;;;23.97;31.46;102579.03;5089619;28;20043;-42
2023/01/27 07:22:33;;;;;;;62.58;41.60;;;;;;;23.90;31.89;102574.34;5071130;28;20103;-42
2023/01/27 07:25:02;;;;;;;54.45;38.67;;;;;;;23.92;31.51;102565.69;5081497;28;20044;-47
2023/01/27 07:27:31;;;;;;;54.15;38.42;;;;;;;23.93;31.79;102574.47;5075968;28;20063;-42
2023/01/27 07:30:00;;;;;;;59.15;38.65;;;;;;;23.92;31.80;102573.56;5075881;28;20032;-42
2023/01/27 07:32:29;;;;;;;50.60;36.45;;;;;;;23.88;31.67;102568.13;5075743;28;20435;-43
2023/01/27 07:34:58;;;;;;;54.00;36.72;;;;;;;23.90;31.94;102572.63;5075567;28;20028;-42
2023/01/27 07:37:26;;;;;;;55.30;37.60;;;;;;;23.91;31.66;102573.50;5075809;28;20531;-42
2023/01/27 07:39:55;;;;;;;53.75;35.05;;;;;;;23.92;31.77;102577.91;5075494;28;20432;-44
2023/01/27 07:42:24;;;;;;;46.00;35.35;;;;;;;23.97;31.65;102574.66;5075817;28;20020;-42
2023/01/27 07:44:52;;;;;;;47.72;35.53;;;;;;;23.94;31.36;102577.13;5075246;28;20127;-42
2023/01/27 07:47:23;;;;;;;48.88;34.30;;;;;;;23.97;31.71;102579.03;5075944;28;20028;-44
2023/01/27 07:49:52;;;;;;;60.72;35.65;;;;;;;23.91;31.73;102574.38;5075589;28;20031;-42
2023/01/27 07:52:21;;;;;;;55.53;36.03;;;;;;;23.94;31.82;102587.63;5075619;28;20107;-44
2023/01/27 07:54:49;;;;;;;54.72;36.47;;;;;;;23.92;31.36;102589.28;5074041;28;20028;-42
2023/01/27 07:57:18;;;;;;;49.53;35.47;;;;;;;23.89;31.22;102589.19;5074389;28;20052;-42
2023/01/27 07:59:46;;;;;;;54.63;35.55;;;;;;;23.87;31.62;102593.47;5075019;28;20108;-42
2023/01/27 08:02:15;;;;;;;50.90;36.25;;;;;;;23.89;31.48;102588.28;5075086;28;20039;-45
2023/01/27 08:04:44;;;;;;;57.28;36.75;;;;;;;23.90;31.49;102603.16;5075285;28;20379;-42
2023/01/27 08:07:12;;;;;;;51.88;35.35;;;;;;;23.89;31.71;102597.06;5075181;28;20166;-43
2023/01/27 08:09:41;;;;;;;51.33;35.92;;;;;;;23.92;31.68;102605.00;5075139;28;20530;-45
2023/01/27 08:12:10;;;;;;;48.53;34.40;;;;;;;23.93;31.41;102598.94;5075079;28;20082;-42
2023/01/27 08:14:38;;;;;;;51.60;36.10;;;;;;;23.88;31.75;102595.25;5075128;28;20039;-43
2023/01/27 08:17:07;;;;;;;47.72;35.15;;;;;;;23.97;31.31;102606.13;5074807;28;20036;-44
2023/01/27 08:19:36;;;;;;;54.67;36.95;;;;;;;23.88;31.28;102603.13;5074411;28;20089;-43
2023/01/27 08:22:04;;;;;;;52.85;35.75;;;;;;;23.81;31.40;102595.84;5074870;28;20060;-42
2023/01/27 08:24:33;;;;;;;53.42;35.97;;;;;;;23.88;31.64;102604.84;5074588;28;20056;-40
2023/01/27 08:27:02;;;;;;;48.70;34.78;;;;;;;23.89;31.44;102607.53;5075100;28;20020;-40
2023/01/27 08:29:32;;;;;;;52.35;35.40;;;;;;;23.88;31.59;102599.59;5074926;28;20029;-41
2023/01/27 08:32:00;;;;;;;58.67;35.83;;;;;;;23.89;31.65;102602.28;5074863;28;20111;-40
2023/01/27 08:34:29;;;;;;;54.33;36.92;;;;;;;23.93;31.15;102603.28;5074587;28;20028;-42
2023/01/27 08:36:58;;;;;;;58.13;39.35;;;;;;;23.90;31.32;102597.94;5072655;28;20029;-39
2023/01/27 08:39:26;;;;;;;58.70;38.53;;;;;;;23.91;31.10;102600.59;5074790;28;20075;-40
2023/01/27 08:41:55;;;;;;;58.08;37.03;;;;;;;23.88;31.42;102590.03;5074678;28;20379;-46
2023/01/27 08:44:23;;;;;;;56.03;36.95;;;;;;;23.93;31.47;102603.28;5074369;28;20111;-45
2023/01/27 08:46:52;;;;;;;52.60;35.45;;;;;;;23.93;31.32;102613.78;5074368;28;20471;-40
2023/01/27 08:49:21;;;;;;;55.47;36.78;;;;;;;23.92;31.15;102598.88;5074602;28;20056;-41
2023/01/27 08:51:50;;;;;;;49.10;34.13;;;;;;;23.93;31.05;102598.06;5074298;28;20028;-42
2023/01/27 08:54:18;;;;;;;48.20;33.17;;;;;;;23.92;31.50;102610.25;5074492;28;20031;-40
2023/01/27 08:56:47;;;;;;;59.28;34.33;;;;;;;23.89;31.23;102596.13;5074279;28;20079;-41
2023/01/27 08:59:15;;;;;;;54.50;35.80;;;;;;;23.93;31.15;102603.28;5074156;28;20028;-41
2023/01/27 09:01:44;;;;;;;51.30;34.28;;;;;;;23.94;31.22;102599.84;5073612;28;20556;-41
2023/01/27 09:04:13;;;;;;;53.08;34.70;;;;;;;23.94;31.34;102608.59;5072921;28;20480;-41
2023/01/27 09:06:41;;;;;;;51.20;34.90;;;;;;;23.95;31.34;102618.25;5073761;28;20387;-41
2023/01/27 09:09:09;;;;;;;52.22;35.33;;;;;;;23.96;30.99;102612.19;5072714;28;20428;-41
2023/01/27 09:11:41;;;;;;;54.75;35.88;;;;;;;23.97;31.21;102613.13;5073399;28;20021;-40
2023/01/27 09:14:09;;;;;;;48.00;34.95;;;;;;;23.97;31.39;102615.72;5074196;28;20020;-41
2023/01/27 09:16:37;;;;;;;51.15;35.97;;;;;;;24.00;31.24;102617.56;5073730;28;20024;-41
2023/01/27 09:19:06;;;;;;;53.35;35.83;;;;;;;24.00;30.95;102615.81;5074500;28;20017;-40
2023/01/27 09:21:35;;;;;;;54.00;35.47;;;;;;;24.02;31.02;102622.03;5073457;28;20020;-40
2023/01/27 09:24:03;;;;;;;53.78;36.13;;;;;;;24.05;31.01;102621.28;5055525;28;20052;-41
2023/01/27 09:26:32;;;;;;;52.65;36.40;;;;;;;24.03;31.09;102620.31;5073469;28;20027;-40
2023/01/27 09:29:00;;;;;;;52.95;36.75;;;;;;;24.06;31.11;102620.44;5073778;28;20025;-41
2023/01/27 09:31:29;;;;;;;56.58;36.17;;;;;;;24.06;31.23;102616.06;5073629;28;20388;-40
2023/01/27 09:33:58;;;;;;;53.55;36.67;;;;;;;24.08;30.91;102626.59;5055673;28;20028;-40
2023/01/27 09:36:26;;;;;;;56.92;37.80;;;;;;;24.08;31.33;102627.53;5073229;28;20028;-41
2023/01/27 09:38:59;;;;;;;53.15;36.90;;;;;;;24.12;31.00;102634.69;5073551;28;20050;-41
2023/01/27 09:41:38;;;;;;;53.80;34.92;;;;;;;24.12;31.22;102628.53;5055473;28;20475;-40
2023/01/27 09:44:26;;;;;;;54.95;36.13;;;;;;;24.13;30.89;102630.31;5073691;28;20090;-41
2023/01/27 09:47:06;;;;;;;53.35;38.85;;;;;;;24.14;30.87;102633.84;5067222;28;20426;-40
2023/01/27 09:50:07;;;;;;;56.72;38.50;;;;;;;24.16;31.31;102626.94;5073108;28;20036;-41
2023/01/27 09:53:14;;;;;;;56.47;37.70;;;;;;;24.20;30.74;102629.72;5068563;28;20029;-40
2023/01/27 09:56:07;;;;;;;60.25;39.78;;;;;;;24.21;31.13;102630.59;5068307;28;20033;-40
2023/01/27 09:58:48;;;;;;;53.30;37.05;;;;;;;24.24;30.75;102635.97;5072384;28;20115;-41
2023/01/27 10:01:43;;;;;;;54.58;36.95;;;;;;;24.26;31.12;102629.06;5072167;28;20474;-43
2023/01/27 10:04:37;;;;;;;52.80;36.65;;;;;;;24.27;30.85;102630.84;5067200;28;20071;-41
2023/01/27 10:07:20;;;;;;;55.58;37.95;;;;;;;24.33;30.88;102623.19;5072517;28;20503;-41
2023/01/27 10:10:10;;;;;;;60.85;39.17;;;;;;;24.31;30.76;102632.75;5072972;28;20031;-41
2023/01/27 10:12:59;;;;;;;53.63;37.40;;;;;;;24.32;30.70;102634.56;5048212;28;20373;-40
2023/01/27 10:15:42;;;;;;;56.95;39.15;;;;;;;24.32;30.84;102621.44;5071839;28;20032;-41
2023/01/27 10:18:24;;;;;;;53.95;37.17;;;;;;;24.41;30.68;102633.97;5073352;28;20029;-41
2023/01/27 10:21:17;;;;;;;53.05;38.55;;;;;;;24.38;30.79;102636.50;5071921;28;20021;-40
2023/01/27 10:24:10;;;;;;;59.40;38.75;;;;;;;24.38;30.55;102639.13;5065456;28;20491;-42
2023/01/27 10:26:42;;;;;;;61.83;39.90;;;;;;;24.38;30.46;102639.13;5063041;28;20043;-41
2023/01/27 10:29:18;;;;;;;58.85;39.97;;;;;;;24.36;31.06;102628.56;5072040;28;20024;-42
2023/01/27 10:31:58;;;;;;;53.67;38.15;;;;;;;24.38;31.08;102626.91;5073221;28;20025;-40
2023/01/27 10:34:37;;;;;;;56.72;39.53;;;;;;;24.37;30.70;102646.09;5055137;28;20039;-40
2023/01/27 10:37:31;;;;;;;60.47;40.03;;;;;;;24.34;31.08;102639.84;5071808;28;20050;-40
2023/01/27 10:40:16;;;;;;;65.88;41.67;;;;;;;24.39;30.66;102633.94;5065143;28;20058;-41
2023/01/27 10:42:59;;;;;;;58.38;40.58;;;;;;;24.39;30.84;102641.81;5071862;28;20028;-40
2023/01/27 10:45:36;;;;;;;63.33;40.78;;;;;;;24.38;30.85;102629.53;5071594;28;20048;-41
2023/01/27 10:48:42;;;;;;;58.05;38.72;;;;;;;24.37;30.83;102637.34;5054708;28;20028;-41
2023/01/27 10:51:36;;;;;;;61.25;41.25;;;;;;;24.38;30.70;102640.00;5068020;28;20037;-40
2023/01/27 10:54:10;;;;;;;60.05;40.45;;;;;;;24.40;30.74;102640.09;5072591;28;20031;-41
2023/01/27 10:56:47;;;;;;;59.83;41.05;;;;;;;24.41;30.48;102627.03;5055495;28;20028;-43
2023/01/27 10:59:49;;;;;;;58.72;38.95;;;;;;;24.39;30.60;102623.44;5072706;28;20040;-41
2023/01/27 11:02:40;;;;;;;59.80;40.20;;;;;;;24.40;30.92;102614.75;5070042;28;20040;-41
2023/01/27 11:05:14;;;;;;;58.75;39.65;;;;;;;24.45;30.73;102616.66;5070878;28;20040;-41
2023/01/27 11:07:49;;;;;;;61.13;40.67;;;;;;;24.40;30.68;102614.75;5076113;28;20025;-41
2023/01/27 11:10:19;;;;;;;59.67;39.17;;;;;;;24.42;30.60;102610.44;5075238;28;20025;-40
2023/01/27 11:12:50;;;;;;;62.60;39.60;;;;;;;24.46;30.63;102610.56;5075087;28;20020;-41
2023/01/27 11:15:27;;;;;;;62.63;41.00;;;;;;;24.41;30.75;102607.75;5075154;28;20029;-43
2023/01/27 11:18:10;;;;;;;62.50;40.80;;;;;;;24.39;30.81;102604.19;5076041;28;20032;-40
2023/01/27 11:20:43;;;;;;;61.85;39.92;;;;;;;24.44;30.88;102594.75;5075773;28;20090;-41
2023/01/27 11:23:20;;;;;;;63.28;40.72;;;;;;;24.48;30.41;102598.41;5058018;28;20116;-43
2023/01/27 11:26:26;;;;;;;62.85;41.45;;;;;;;24.47;30.89;102592.25;5074578;28;20039;-40
2023/01/27 11:28:57;;;;;;;64.45;42.15;;;;;;;24.50;30.73;102594.06;5075337;28;20071;-41
2023/01/27 11:31:45;;;;;;;63.17;41.78;;;;;;;24.47;30.52;102592.25;5074821;28;20016;-41
2023/01/27 11:34:19;;;;;;;60.42;41.10;;;;;;;24.48;30.77;102587.91;5063169;28;20047;-41
2023/01/27 11:36:49;;;;;;;76.15;49.35;;;;;;;24.46;30.72;102581.72;5074767;28;20103;-45
2023/01/27 11:39:19;;;;;;;88.90;57.80;;;;;;;24.47;30.85;102594.00;5076111;28;20024;-41
2023/01/27 11:41:51;;;;;;;85.88;62.90;;;;;;;24.47;31.20;102573.00;5075917;28;20024;-44
2023/01/27 11:44:24;;;;;;;103.88;70.03;;;;;;;24.49;30.93;102580.09;5074310;28;20499;-42
2023/01/27 11:46:53;;;;;;;113.38;77.18;;;;;;;24.51;31.10;102580.13;5071779;28;20063;-40
2023/01/27 11:49:31;;;;;;;127.63;84.85;;;;;;;24.45;31.51;102569.44;5073005;28;20033;-41
2023/01/27 11:52:05;;;;;;;135.55;89.07;;;;;;;24.45;31.21;102579.91;5073751;28;20104;-42
2023/01/27 11:54:59;;;;;;;149.10;98.73;;;;;;;24.42;31.69;102568.47;5073067;28;20024;-44
2023/01/27 11:57:27;;;;;;;157.93;103.68;;;;;;;24.48;31.81;102572.16;5071934;28;20267;-40
2023/01/27 11:59:59;;;;;;;160.25;108.47;;;;;;;24.50;31.63;102570.47;5072772;28;20103;-41
2023/01/27 12:02:44;;;;;;;164.77;113.78;;;;;;;24.48;31.66;102573.03;5055708;28;20028;-40
2023/01/27 12:05:19;;;;;;;167.50;117.25;;;;;;;24.53;31.49;102565.34;5066259;28;20094;-41
2023/01/27 12:07:46;;;;;;;;;;;;;;;24.54;31.48;102565.41;5072140;28;20036;-41
2023/01/27 12:10:34;;;;;;;195.18;128.23;;;;;;;24.58;31.80;102559.41;5071710;28;19938;-41
2023/01/27 12:13:16;;;;;;;193.00;129.35;;;;;;;24.57;31.67;102541.88;5070476;28;20086;-40
2023/01/27 12:15:59;;;;;;;202.60;135.55;;;;;;;24.58;31.76;102550.66;5071015;28;20036;-40
2023/01/27 12:18:26;;;;;;;201.15;138.13;;;;;;;24.53;31.97;102542.63;5071488;28;20046;-42
2023/01/27 12:21:01;;;;;;;209.75;143.27;;;;;;;24.52;32.09;102538.22;5070164;28;20020;-41
2023/01/27 12:23:32;;;;;;;210.77;147.15;;;;;;;24.56;32.11;102533.97;5069764;28;20392;-44
2023/01/27 12:26:03;;;;;;;223.18;153.45;;;;;;;24.56;31.73;102531.34;5072415;28;20029;-42
2023/01/27 12:28:35;;;;;;;223.38;152.32;;;;;;;24.58;32.04;102538.41;5071189;28;20078;-42
2023/01/27 12:31:13;;;;;;;231.48;158.15;;;;;;;24.60;32.02;102529.72;5070136;28;20028;-42
2023/01/27 12:33:45;;;;;;;228.27;161.05;;;;;;;24.61;31.86;102526.25;5070091;28;20029;-40
2023/01/27 12:36:15;;;;;;;224.30;157.30;;;;;;;24.62;31.92;102531.56;5069768;28;20071;-40
2023/01/27 12:38:54;;;;;;;239.52;165.38;;;;;;;24.56;32.05;102523.47;5067443;28;20091;-43
2023/01/27 12:41:28;;;;;;;233.65;163.85;;;;;;;24.60;32.27;102527.09;5070115;28;20074;-41
2023/01/27 12:44:15;;;;;;;243.25;167.25;;;;;;;24.61;31.87;102529.78;5070568;28;20521;-41
2023/01/27 12:46:59;;;;;;;238.48;166.75;;;;;;;24.63;32.15;102520.25;5064734;28;20037;-41
2023/01/27 12:49:32;;;;;;;251.23;174.15;;;;;;;24.66;32.33;102524.69;5069975;28;20024;-40
2023/01/27 12:52:04;;;;;;;253.52;175.23;;;;;;;24.65;31.83;102522.91;5072151;28;20021;-42
2023/01/27 12:54:33;;;;;;;247.30;173.35;;;;;;;24.62;32.26;102518.44;5067709;28;20025;-40
2023/01/27 12:57:03;;;;;;;261.15;181.73;;;;;;;24.63;31.96;102517.63;5068912;28;20073;-40
2023/01/27 12:59:31;;;;;;;259.45;177.75;;;;;;;24.62;32.09;102507.03;5068558;28;20365;-40
2023/01/27 13:02:21;;;;;;;246.60;173.68;;;;;;;24.61;32.04;102508.78;5067738;28;20154;-42
2023/01/27 13:05:00;;;;;;;251.00;175.93;;;;;;;24.62;31.95;102504.41;5066990;28;20081;-41
2023/01/27 13:07:31;;;;;;;235.23;163.38;;;;;;;24.63;31.88;102504.50;5069624;28;20028;-41
2023/01/27 13:10:01;;;;;;;249.63;171.15;;;;;;;24.63;32.24;102503.59;5071685;28;20442;-40
2023/01/27 13:12:31;;;;;;;237.05;166.65;;;;;;;24.61;32.25;102493.06;5070630;28;20048;-40
2023/01/27 13:15:08;;;;;;;245.02;171.90;;;;;;;24.62;32.31;102497.47;5069833;28;20107;-40
2023/01/27 13:17:39;;;;;;;250.75;171.20;;;;;;;24.64;32.27;102494.88;5068969;28;20422;-42
2023/01/27 13:20:19;;;;;;;255.20;181.45;;;;;;;24.62;32.45;102496.56;5069248;28;20032;-40
2023/01/27 13:22:51;;;;;;;240.60;176.73;;;;;;;24.64;32.19;102490.53;5051869;28;20050;-41
2023/01/27 13:25:21;;;;;;;260.20;179.13;;;;;;;24.66;32.33;102485.34;5070919;28;20048;-43
2023/01/27 13:27:50;;;;;;;253.30;177.52;;;;;;;24.68;32.24;102479.28;5071571;28;20115;-40
2023/01/27 13:30:27;;;;;;;248.10;175.07;;;;;;;24.65;32.61;102483.53;5071453;28;20043;-43
2023/01/27 13:33:03;;;;;;;250.20;176.40;;;;;;;24.58;32.77;102472.81;5071254;28;20115;-44
2023/01/27 13:35:35;;;;;;;252.85;178.63;;;;;;;24.63;32.95;102472.09;5050505;28;20076;-44
2023/01/27 13:38:22;;;;;;;250.73;180.05;;;;;;;24.59;32.86;102476.34;5067995;28;20100;-47
2023/01/27 13:40:51;;;;;;;247.88;176.35;;;;;;;24.63;32.64;102461.59;5069471;28;20508;-45
2023/01/27 13:43:23;;;;;;;249.52;172.23;;;;;;;24.67;32.61;102459.13;5053037;28;20036;-41
2023/01/27 13:46:15;;;;;;;259.92;182.48;;;;;;;24.67;33.27;102451.25;5069550;28;20024;-41
2023/01/27 13:48:48;;;;;;;257.38;181.82;;;;;;;24.70;32.86;102453.16;5068462;28;20480;-41
2023/01/27 13:51:18;;;;;;;257.48;179.10;;;;;;;24.70;32.98;102453.16;5069999;28;20028;-40
2023/01/27 13:53:48;;;;;;;245.35;171.52;;;;;;;24.71;32.77;102447.06;5071171;28;20021;-45
2023/01/27 13:56:49;;;;;;;247.57;175.82;;;;;;;24.67;33.11;102445.13;5069554;28;20115;-43
2023/01/27 13:59:36;;;;;;;256.90;182.32;;;;;;;24.71;33.06;102445.31;5052056;28;20734;-43
2023/01/27 14:02:05;;;;;;;253.18;179.05;;;;;;;24.78;32.88;102445.53;5069768;28;20024;-41
2023/01/27 14:05:11;;;;;;;265.00;188.85;;;;;;;24.71;33.78;102445.31;5069844;28;20407;-41
2023/01/27 14:08:00;;;;;;;269.33;189.38;;;;;;;24.69;33.55;102444.34;5060046;28;20033;-41
2023/01/27 14:10:36;;;;;;;266.70;189.32;;;;;;;24.69;33.77;102451.31;5069244;28;20060;-41
2023/01/27 14:13:08;;;;;;;281.90;198.82;;;;;;;24.70;33.89;102454.03;5070831;28;20035;-41
2023/01/27 14:15:48;;;;;;;279.98;198.23;;;;;;;24.72;33.58;102461.97;5071600;28;20020;-40
2023/01/27 14:18:31;;;;;;;276.23;191.20;;;;;;;24.70;33.86;102454.03;5070993;28;20037;-41
2023/01/27 14:21:38;;;;;;;274.73;196.30;;;;;;;24.75;33.62;102459.41;5070284;28;20092;-41
2023/01/27 14:24:45;;;;;;;277.58;197.77;;;;;;;24.76;33.45;102447.22;5071117;28;20487;-43
2023/01/27 14:27:33;;;;;;;270.50;193.50;;;;;;;24.79;33.26;102449.94;5071097;28;20048;-41
2023/01/27 14:30:11;;;;;;;272.55;192.18;;;;;;;24.79;33.03;102453.44;5069715;28;20032;-40
2023/01/27 14:32:50;;;;;;;280.73;202.32;;;;;;;24.82;33.78;102457.91;5071768;28;20483;-41
2023/01/27 14:35:43;;;;;;;280.77;199.50;;;;;;;24.79;33.23;102457.81;5071289;28;20066;-41
2023/01/27 14:38:32;;;;;;;275.55;198.15;;;;;;;24.79;33.50;102456.06;5066332;28;20028;-42
2023/01/27 14:41:01;;;;;;;280.50;203.75;;;;;;;24.81;33.29;102453.50;5072411;28;20040;-41
2023/01/27 14:43:33;;;;;;;281.42;200.13;;;;;;;24.83;33.38;102463.22;5075605;28;20024;-41
2023/01/27 14:46:20;;;;;;;283.73;202.85;;;;;;;24.79;33.65;102463.06;5075126;28;20480;-44
2023/01/27 14:48:52;;;;;;;284.77;199.60;;;;;;;24.81;33.58;102467.50;5070126;28;20040;-41
2023/01/27 14:51:29;;;;;;;289.85;202.48;;;;;;;24.83;33.01;102464.91;5072335;28;20078;-40
2023/01/27 14:54:05;;;;;;;291.75;210.25;;;;;;;24.83;33.20;102464.91;5074029;28;20040;-43
2023/01/27 14:56:52;;;;;;;308.65;218.02;;;;;;;24.79;33.74;102468.31;5070816;28;20059;-41
2023/01/27 14:59:48;;;;;;;294.58;206.90;;;;;;;24.75;33.72;102451.53;5066836;28;20123;-44
2023/01/27 15:02:20;;;;;;;;;;;;;;;24.75;33.80;102462.03;5070865;28;20105;-41
2023/01/27 15:05:15;;;;;;;307.02;216.68;;;;;;;24.78;33.51;102461.28;5068677;28;20400;-43
2023/01/27 15:07:57;;;;;;;292.05;211.52;;;;;;;24.80;33.71;102467.47;5061630;28;20063;-41
2023/01/27 15:10:30;;;;;;;313.17;221.70;;;;;;;24.81;33.94;102464.88;5070382;28;20130;-41
2023/01/27 15:13:18;;;;;;;315.35;222.02;;;;;;;24.78;33.72;102472.66;5068510;28;20055;-40
2023/01/27 15:15:54;;;;;;;289.85;215.75;;;;;;;24.81;33.47;102471.88;5066183;28;20045;-40
2023/01/27 15:19:00;;;;;;;307.90;216.95;;;;;;;24.76;33.57;102476.06;5071449;28;20025;-41
2023/01/27 15:21:46;;;;;;;;;;;;;;;24.78;33.50;102483.16;5064463;28;20062;-42
2023/01/27 15:24:32;;;;;;;324.35;225.55;;;;;;;24.81;33.44;102487.63;5066892;28;20057;-41
2023/01/27 15:27:01;;;;;;;316.70;226.80;;;;;;;24.80;33.89;102483.22;5070340;28;20044;-40
2023/01/27 15:29:29;;;;;;;333.08;236.50;;;;;;;24.81;33.67;102482.38;5073514;28;20032;-41
2023/01/27 15:32:16;;;;;;;332.83;235.25;;;;;;;24.77;33.90;102489.22;5071335;28;20074;-40
2023/01/27 15:34:45;;;;;;;314.50;220.48;;;;;;;24.76;33.52;102490.06;5072000;28;20032;-41
2023/01/27 15:37:23;;;;;;;318.60;219.80;;;;;;;24.76;33.61;102494.44;5072533;28;20437;-43
2023/01/27 15:40:15;;;;;;;306.02;219.05;;;;;;;24.76;33.67;102491.81;5071496;28;20088;-42
2023/01/27 15:43:03;;;;;;;297.38;217.85;;;;;;;24.74;33.41;102497.00;5071012;28;20028;-40
2023/01/27 15:45:36;;;;;;;302.70;216.48;;;;;;;24.72;33.73;102494.34;5070115;28;20017;-41
2023/01/27 15:48:15;;;;;;;324.60;228.35;;;;;;;24.73;33.50;102492.63;5073350;28;20471;-40
2023/01/27 15:50:50;;;;;;;322.27;226.40;;;;;;;24.71;33.23;102505.66;5072006;28;20025;-40
2023/01/27 15:53:32;;;;;;;308.85;224.60;;;;;;;24.77;33.62;102509.34;5073672;28;20479;-40
2023/01/27 15:56:00;;;;;;;334.15;234.20;;;;;;;24.79;33.66;102507.69;5070937;28;20402;-40
2023/01/27 15:58:52;;;;;;;330.08;237.50;;;;;;;24.79;33.55;102508.56;5072242;28;20438;-40
2023/01/27 16:01:26;;;;;;;323.70;232.52;;;;;;;24.82;33.76;102516.53;5065571;28;20090;-40
2023/01/27 16:04:11;;;;;;;346.52;238.85;;;;;;;24.84;33.44;102504.38;5071500;28;20036;-43
2023/01/27 16:07:02;;;;;;;339.20;241.02;;;;;;;24.87;33.59;102504.47;5070722;28;20039;-40
2023/01/27 16:09:50;;;;;;;330.83;232.88;;;;;;;24.86;33.42;102509.66;5069981;28;20028;-42
2023/01/27 16:12:39;;;;;;;339.88;241.40;;;;;;;24.89;33.42;102501.88;5070825;28;20031;-41
2023/01/27 16:15:26;;;;;;;328.65;239.50;;;;;;;24.94;33.19;102502.03;5069417;28;20166;-40
2023/01/27 16:17:57;;;;;;;349.60;243.07;;;;;;;24.95;33.18;102504.72;5069585;28;20029;-40
2023/01/27 16:20:30;;;;;;;316.80;230.63;;;;;;;24.87;33.24;102493.97;5071166;28;20379;-40
2023/01/27 16:23:19;;;;;;;344.67;241.95;;;;;;;24.98;33.78;102502.22;5054654;28;20408;-43
2023/01/27 16:25:50;;;;;;;346.58;245.88;;;;;;;24.94;33.62;102502.94;5065231;28;20090;-45
2023/01/27 16:28:22;;;;;;;327.73;233.43;;;;;;;24.94;33.43;102505.56;5071402;28;20020;-40
2023/01/27 16:31:04;;;;;;;342.35;238.57;;;;;;;24.95;33.48;102520.47;5071833;28;20029;-43
2023/01/27 16:33:37;;;;;;;328.13;237.35;;;;;;;24.93;33.26;102506.41;5070823;28;20059;-41
2023/01/27 16:36:06;;;;;;;332.42;243.32;;;;;;;24.95;33.41;102512.59;5071774;28;20056;-43
2023/01/27 16:38:38;;;;;;;336.55;240.13;;;;;;;24.97;33.49;102504.75;5071429;28;20442;-41
2023/01/27 16:41:26;;;;;;;339.92;242.90;;;;;;;24.97;33.16;102513.56;5070963;28;20058;-43
2023/01/27 16:43:56;;;;;;;329.60;235.55;;;;;;;24.99;33.36;102517.09;5051053;28;20532;-41
2023/01/27 16:46:29;;;;;;;337.65;242.55;;;;;;;24.99;33.14;102519.72;5069355;28;20032;-42
2023/01/27 16:48:58;;;;;;;325.20;232.40;;;;;;;25.02;33.43;102509.31;5070863;28;20031;-41
2023/01/27 16:51:28;;;;;;;329.95;234.65;;;;;;;25.07;33.16;102511.22;5071581;28;20476;-47
2023/01/27 16:53:58;;;;;;;321.30;234.63;;;;;;;25.09;32.89;102517.41;5071588;28;20039;-46
2023/01/27 16:56:26;;;;;;;326.30;234.65;;;;;;;25.12;33.06;102530.66;5071728;28;20025;-41
2023/01/27 16:59:01;;;;;;;334.02;234.00;;;;;;;25.10;33.09;102527.06;5071445;28;20020;-43
2023/01/27 17:01:41;;;;;;;338.92;233.02;;;;;;;25.11;32.99;102528.88;5070771;28;20109;-48
2023/01/27 17:04:16;;;;;;;325.85;231.38;;;;;;;25.11;33.20;102519.22;5070196;28;20066;-45
2023/01/27 17:06:44;;;;;;;329.58;235.57;;;;;;;25.13;33.05;102524.56;5070223;28;20028;-46
2023/01/27 17:09:34;;;;;;;325.88;230.98;;;;;;;25.10;33.17;102524.44;5068471;28;20029;-44
2023/01/27 17:12:01;;;;;;;317.75;230.60;;;;;;;25.08;33.23;102518.25;5071820;28;20038;-41
2023/01/27 17:14:32;;;;;;;314.98;227.52;;;;;;;25.10;32.82;102534.94;5071313;28;20067;-44
2023/01/27 17:17:02;;;;;;;343.65;245.93;;;;;;;25.07;33.18;102533.09;5070735;28;20586;-44
2023/01/27 17:19:34;;;;;;;322.92;229.48;;;;;;;25.07;33.13;102538.34;5071630;28;20021;-43
2023/01/27 17:22:09;;;;;;;328.42;233.07;;;;;;;25.08;33.07;102549.75;5070406;28;20178;-42
2023/01/27 17:24:36;;;;;;;;;;;;;;;25.10;32.90;102548.09;5069923;28;20098;-44
2023/01/27 17:27:07;;;;;;;321.90;228.20;;;;;;;25.13;32.66;102549.06;5052553;28;19913;-43
2023/01/27 17:29:38;;;;;;;331.00;233.35;;;;;;;25.11;33.01;102549.88;5071866;28;20464;-44
2023/01/27 17:32:26;;;;;;;323.60;231.32;;;;;;;25.01;33.13;102543.41;5072584;28;20396;-43
2023/01/27 17:34:56;;;;;;;313.65;226.50;;;;;;;25.10;33.12;102548.09;5068232;28;20059;-45
2023/01/27 17:37:25;;;;;;;322.67;230.70;;;;;;;25.12;33.15;102544.66;5069071;28;20037;-45
2023/01/27 17:39:56;;;;;;;328.35;228.88;;;;;;;25.09;33.18;102543.66;5068752;28;20024;-44
2023/01/27 17:42:28;;;;;;;318.17;230.32;;;;;;;25.07;33.15;102543.59;5067890;28;20056;-41
2023/01/27 17:45:21;;;;;;;311.13;224.73;;;;;;;25.11;32.85;102542.88;5067744;28;20395;-46
2023/01/27 17:47:50;;;;;;;330.67;227.32;;;;;;;25.12;32.89;102549.03;5070594;28;20032;-45
2023/01/27 17:50:21;;;;;;;327.48;232.27;;;;;;;25.05;33.17;102552.28;5072641;28;20032;-42
2023/01/27 17:52:51;;;;;;;310.92;225.27;;;;;;;25.08;33.23;102553.25;5072630;28;20047;-43
2023/01/27 17:55:20;;;;;;;334.98;230.50;;;;;;;25.00;33.24;102547.75;5070580;28;20035;-43
2023/01/27 17:57:51;;;;;;;327.70;232.23;;;;;;;25.13;32.68;102553.44;5070676;28;20541;-41
2023/01/27 18:00:32;;;;;;;330.00;229.63;;;;;;;25.05;33.13;102555.81;5071062;28;20028;-43
2023/01/27 18:03:04;;;;;;;321.42;226.77;;;;;;;25.11;32.96;102565.63;5068300;28;20028;-44
2023/01/27 18:05:34;;;;;;;312.85;227.75;;;;;;;25.11;32.99;102560.38;5049783;28;20026;-41